KCXW

Cantrell Field Airport

Conway, Arkansas, USA
METAR KCXW 191315Z AUTO 17004KT 8SM CLR 08/07 A2997 RMK A01
Observed Flight Rules
Dec-19 @ 13:15 UTC (23 minutes ago) Visual Flight Rules
Wind Visibility Clouds
170° at 4 knots 8 miles
  • Clear skies
Temperatures Readings
Current 8°C / 46°F
Dewpoint 7°C / 45°F
Humidity 93%
Altimeter 29.97" Hg
Pressure 1015 hPa
Elevation 84
METAR KCXW 191315Z AUTO 17004KT 8SM CLR 08/07 A2997 RMK A01
Observed Flight Rules
Dec-19 @ 13:15 UTC
(23 minutes ago)
VFR
Wind Visibility
170° at 4 knots 8 miles
Clouds
  • Clear skies
Temperature Dewpoint
8°C / 46°F 7°C / 45°F
Humidity Altimeter Pressure
93% 29.97" Hg 1015 hPa